sensor_id;sensor_type;location;lat;lon;timestamp;temperature;humidity
11446;DHT22;5779;64.178;15.432;2022-11-04T00:01:04;7.40;99.90
11446;DHT22;5779;64.178;15.432;2022-11-04T00:03:51;7.30;99.90
11446;DHT22;5779;64.178;15.432;2022-11-04T00:06:40;7.30;99.90
11446;DHT22;5779;64.178;15.432;2022-11-04T00:09:28;7.20;99.90
11446;DHT22;5779;64.178;15.432;2022-11-04T00:12:15;7.10;99.90
11446;DHT22;5779;64.178;15.432;2022-11-04T00:15:09;7.20;99.90
11446;DHT22;5779;64.178;15.432;2022-11-04T00:18:10;7.20;99.90
11446;DHT22;5779;64.178;15.432;2022-11-04T00:20:57;7.10;99.90
11446;DHT22;5779;64.178;15.432;2022-11-04T00:24:03;7.20;99.90
11446;DHT22;5779;64.178;15.432;2022-11-04T00:27:19;7.30;99.90
11446;DHT22;5779;64.178;15.432;2022-11-04T00:30:24;7.30;99.90
11446;DHT22;5779;64.178;15.432;2022-11-04T00:33:11;7.40;99.90
11446;DHT22;5779;64.178;15.432;2022-11-04T00:36:12;7.30;99.90
11446;DHT22;5779;64.178;15.432;2022-11-04T00:38:58;7.30;99.90
11446;DHT22;5779;64.178;15.432;2022-11-04T00:41:47;7.30;99.90
11446;DHT22;5779;64.178;15.432;2022-11-04T00:44:34;7.30;99.90
11446;DHT22;5779;64.178;15.432;2022-11-04T00:47:21;7.40;99.90
11446;DHT22;5779;64.178;15.432;2022-11-04T00:50:08;7.50;99.90
11446;DHT22;5779;64.178;15.432;2022-11-04T00:52:58;7.50;99.90
11446;DHT22;5779;64.178;15.432;2022-11-04T00:55:45;7.50;99.90
11446;DHT22;5779;64.178;15.432;2022-11-04T00:58:33;7.50;99.90
11446;DHT22;5779;64.178;15.432;2022-11-04T01:01:20;7.40;99.90
11446;DHT22;5779;64.178;15.432;2022-11-04T01:04:07;7.40;99.90
11446;DHT22;5779;64.178;15.432;2022-11-04T01:06:54;7.50;99.90
11446;DHT22;5779;64.178;15.432;2022-11-04T01:09:41;7.40;99.90
11446;DHT22;5779;64.178;15.432;2022-11-04T01:12:28;7.40;99.90
11446;DHT22;5779;64.178;15.432;2022-11-04T01:15:16;7.40;99.90
11446;DHT22;5779;64.178;15.432;2022-11-04T01:18:04;7.30;99.90
11446;DHT22;5779;64.178;15.432;2022-11-04T01:20:51;7.40;99.90
11446;DHT22;5779;64.178;15.432;2022-11-04T01:23:39;7.40;99.90
11446;DHT22;5779;64.178;15.432;2022-11-04T01:26:27;7.30;99.90
11446;DHT22;5779;64.178;15.432;2022-11-04T01:29:13;7.30;99.90
11446;DHT22;5779;64.178;15.432;2022-11-04T01:32:02;7.30;99.90
11446;DHT22;5779;64.178;15.432;2022-11-04T01:34:49;7.20;99.90
11446;DHT22;5779;64.178;15.432;2022-11-04T01:37:35;7.10;99.90
11446;DHT22;5779;64.178;15.432;2022-11-04T01:40:23;7.20;99.90
11446;DHT22;5779;64.178;15.432;2022-11-04T01:43:12;7.20;99.90
11446;DHT22;5779;64.178;15.432;2022-11-04T01:46:00;7.20;99.90
11446;DHT22;5779;64.178;15.432;2022-11-04T01:48:50;7.20;99.90
11446;DHT22;5779;64.178;15.432;2022-11-04T01:51:39;7.20;99.90
11446;DHT22;5779;64.178;15.432;2022-11-04T01:54:28;7.20;99.90
11446;DHT22;5779;64.178;15.432;2022-11-04T01:57:19;7.10;99.90
11446;DHT22;5779;64.178;15.432;2022-11-04T02:00:09;7.10;99.90
11446;DHT22;5779;64.178;15.432;2022-11-04T02:03:00;7.10;99.90
11446;DHT22;5779;64.178;15.432;2022-11-04T02:05:50;7.00;99.90
11446;DHT22;5779;64.178;15.432;2022-11-04T02:08:37;6.90;99.90
11446;DHT22;5779;64.178;15.432;2022-11-04T02:11:25;6.90;99.90
11446;DHT22;5779;64.178;15.432;2022-11-04T02:14:30;6.90;99.90
11446;DHT22;5779;64.178;15.432;2022-11-04T02:17:30;6.80;99.90
11446;DHT22;5779;64.178;15.432;2022-11-04T02:20:28;6.90;99.90
11446;DHT22;5779;64.178;15.432;2022-11-04T02:23:38;6.90;99.90
11446;DHT22;5779;64.178;15.432;2022-11-04T02:30:13;6.80;99.90
11446;DHT22;5779;64.178;15.432;2022-11-04T02:33:13;6.80;99.90
11446;DHT22;5779;64.178;15.432;2022-11-04T02:36:04;6.90;99.90
11446;DHT22;5779;64.178;15.432;2022-11-04T02:38:56;7.10;99.90
11446;DHT22;5779;64.178;15.432;2022-11-04T02:41:51;7.10;99.90
11446;DHT22;5779;64.178;15.432;2022-11-04T02:44:44;7.10;99.90
11446;DHT22;5779;64.178;15.432;2022-11-04T02:47:38;7.20;99.90
11446;DHT22;5779;64.178;15.432;2022-11-04T02:50:32;7.10;99.90
11446;DHT22;5779;64.178;15.432;2022-11-04T02:53:22;7.00;99.90
11446;DHT22;5779;64.178;15.432;2022-11-04T02:56:11;6.90;99.90
11446;DHT22;5779;64.178;15.432;2022-11-04T02:59:04;6.90;99.90
11446;DHT22;5779;64.178;15.432;2022-11-04T03:01:52;6.90;99.90
11446;DHT22;5779;64.178;15.432;2022-11-04T03:04:45;6.90;99.90
11446;DHT22;5779;64.178;15.432;2022-11-04T03:07:35;6.90;99.90
11446;DHT22;5779;64.178;15.432;2022-11-04T03:10:26;7.00;99.90
11446;DHT22;5779;64.178;15.432;2022-11-04T03:13:16;6.90;99.90
11446;DHT22;5779;64.178;15.432;2022-11-04T03:16:06;6.80;99.90
11446;DHT22;5779;64.178;15.432;2022-11-04T03:19:00;6.80;99.90
11446;DHT22;5779;64.178;15.432;2022-11-04T03:21:53;6.70;99.90
11446;DHT22;5779;64.178;15.432;2022-11-04T03:24:41;6.70;99.90
11446;DHT22;5779;64.178;15.432;2022-11-04T03:27:35;6.90;99.90
11446;DHT22;5779;64.178;15.432;2022-11-04T03:30:24;6.90;99.90
11446;DHT22;5779;64.178;15.432;2022-11-04T03:33:17;6.90;99.90
11446;DHT22;5779;64.178;15.432;2022-11-04T03:36:05;6.90;99.90
11446;DHT22;5779;64.178;15.432;2022-11-04T03:38:54;6.80;99.90
11446;DHT22;5779;64.178;15.432;2022-11-04T03:41:46;6.90;99.90
11446;DHT22;5779;64.178;15.432;2022-11-04T03:44:35;6.90;99.90
11446;DHT22;5779;64.178;15.432;2022-11-04T03:47:23;7.00;99.90
11446;DHT22;5779;64.178;15.432;2022-11-04T03:50:15;7.10;99.90
11446;DHT22;5779;64.178;15.432;2022-11-04T03:53:03;7.00;99.90
11446;DHT22;5779;64.178;15.432;2022-11-04T03:56:04;7.00;99.90
11446;DHT22;5779;64.178;15.432;2022-11-04T03:59:01;7.00;99.90
11446;DHT22;5779;64.178;15.432;2022-11-04T04:01:55;7.10;99.90
11446;DHT22;5779;64.178;15.432;2022-11-04T04:04:49;7.20;99.90
11446;DHT22;5779;64.178;15.432;2022-11-04T04:07:42;7.10;99.90
11446;DHT22;5779;64.178;15.432;2022-11-04T04:10:37;7.10;99.90
11446;DHT22;5779;64.178;15.432;2022-11-04T04:13:34;7.10;99.90
11446;DHT22;5779;64.178;15.432;2022-11-04T04:16:27;6.90;99.90
11446;DHT22;5779;64.178;15.432;2022-11-04T04:19:19;6.90;99.90
11446;DHT22;5779;64.178;15.432;2022-11-04T04:22:11;6.90;99.90
11446;DHT22;5779;64.178;15.432;2022-11-04T04:25:01;6.90;99.90
11446;DHT22;5779;64.178;15.432;2022-11-04T04:28:09;6.90;99.90
11446;DHT22;5779;64.178;15.432;2022-11-04T04:31:00;6.90;99.90
11446;DHT22;5779;64.178;15.432;2022-11-04T04:33:48;6.90;99.90
11446;DHT22;5779;64.178;15.432;2022-11-04T04:36:40;6.80;99.90
11446;DHT22;5779;64.178;15.432;2022-11-04T04:39:35;6.90;99.90
11446;DHT22;5779;64.178;15.432;2022-11-04T04:42:41;6.80;99.90
11446;DHT22;5779;64.178;15.432;2022-11-04T04:45:49;6.80;99.90
11446;DHT22;5779;64.178;15.432;2022-11-04T04:48:39;6.70;99.90
11446;DHT22;5779;64.178;15.432;2022-11-04T04:51:26;6.60;99.90
11446;DHT22;5779;64.178;15.432;2022-11-04T04:54:13;6.60;99.90
11446;DHT22;5779;64.178;15.432;2022-11-04T04:57:00;6.60;99.90
11446;DHT22;5779;64.178;15.432;2022-11-04T04:59:47;6.50;99.90
11446;DHT22;5779;64.178;15.432;2022-11-04T05:02:34;6.60;99.90
11446;DHT22;5779;64.178;15.432;2022-11-04T05:05:22;6.60;99.90
11446;DHT22;5779;64.178;15.432;2022-11-04T05:08:09;6.50;99.90
11446;DHT22;5779;64.178;15.432;2022-11-04T05:10:57;6.40;99.90
11446;DHT22;5779;64.178;15.432;2022-11-04T05:13:45;6.40;99.90
11446;DHT22;5779;64.178;15.432;2022-11-04T05:16:32;6.50;99.90
11446;DHT22;5779;64.178;15.432;2022-11-04T05:19:19;6.50;99.90
11446;DHT22;5779;64.178;15.432;2022-11-04T05:22:07;6.50;99.90
11446;DHT22;5779;64.178;15.432;2022-11-04T05:24:54;6.50;99.90
11446;DHT22;5779;64.178;15.432;2022-11-04T05:27:41;6.50;99.90
11446;DHT22;5779;64.178;15.432;2022-11-04T05:30:27;6.50;99.90
11446;DHT22;5779;64.178;15.432;2022-11-04T05:33:14;6.50;99.90
11446;DHT22;5779;64.178;15.432;2022-11-04T05:36:08;6.50;99.90
11446;DHT22;5779;64.178;15.432;2022-11-04T05:38:57;6.50;99.90
11446;DHT22;5779;64.178;15.432;2022-11-04T05:41:44;6.50;99.90
11446;DHT22;5779;64.178;15.432;2022-11-04T05:44:31;6.50;99.90
11446;DHT22;5779;64.178;15.432;2022-11-04T05:47:18;6.50;99.90
11446;DHT22;5779;64.178;15.432;2022-11-04T05:50:05;6.60;99.90
11446;DHT22;5779;64.178;15.432;2022-11-04T05:52:52;6.60;99.90
11446;DHT22;5779;64.178;15.432;2022-11-04T05:55:41;6.70;99.90
11446;DHT22;5779;64.178;15.432;2022-11-04T05:58:27;6.70;99.90
11446;DHT22;5779;64.178;15.432;2022-11-04T06:01:24;6.70;99.90
11446;DHT22;5779;64.178;15.432;2022-11-04T06:04:13;6.70;99.90
11446;DHT22;5779;64.178;15.432;2022-11-04T06:07:00;6.70;99.90
11446;DHT22;5779;64.178;15.432;2022-11-04T06:09:47;6.80;99.90
11446;DHT22;5779;64.178;15.432;2022-11-04T06:12:35;6.70;99.90
11446;DHT22;5779;64.178;15.432;2022-11-04T06:15:23;6.80;99.90
11446;DHT22;5779;64.178;15.432;2022-11-04T06:18:10;6.70;99.90
11446;DHT22;5779;64.178;15.432;2022-11-04T06:21:07;6.80;99.90
11446;DHT22;5779;64.178;15.432;2022-11-04T06:23:55;6.80;99.90
11446;DHT22;5779;64.178;15.432;2022-11-04T06:26:42;6.80;99.90
11446;DHT22;5779;64.178;15.432;2022-11-04T06:29:30;6.80;99.90
11446;DHT22;5779;64.178;15.432;2022-11-04T06:32:18;6.80;99.90
11446;DHT22;5779;64.178;15.432;2022-11-04T06:35:05;6.90;99.90
11446;DHT22;5779;64.178;15.432;2022-11-04T06:37:54;6.80;99.90
11446;DHT22;5779;64.178;15.432;2022-11-04T06:40:41;6.90;99.90
11446;DHT22;5779;64.178;15.432;2022-11-04T06:43:28;6.90;99.90
11446;DHT22;5779;64.178;15.432;2022-11-04T06:46:26;6.80;99.90
11446;DHT22;5779;64.178;15.432;2022-11-04T06:49:14;6.80;99.90
11446;DHT22;5779;64.178;15.432;2022-11-04T06:52:01;6.80;99.90
11446;DHT22;5779;64.178;15.432;2022-11-04T06:54:48;6.70;99.90
11446;DHT22;5779;64.178;15.432;2022-11-04T06:57:35;6.90;99.90
11446;DHT22;5779;64.178;15.432;2022-11-04T07:00:22;7.00;99.90
11446;DHT22;5779;64.178;15.432;2022-11-04T07:03:11;7.00;99.90
11446;DHT22;5779;64.178;15.432;2022-11-04T07:05:58;7.00;99.90
11446;DHT22;5779;64.178;15.432;2022-11-04T07:08:45;7.10;99.90
11446;DHT22;5779;64.178;15.432;2022-11-04T07:11:32;7.00;99.90
11446;DHT22;5779;64.178;15.432;2022-11-04T07:14:19;7.10;99.90
11446;DHT22;5779;64.178;15.432;2022-11-04T07:17:06;7.10;99.90
11446;DHT22;5779;64.178;15.432;2022-11-04T07:19:54;7.10;99.90
11446;DHT22;5779;64.178;15.432;2022-11-04T07:22:41;7.10;99.90
11446;DHT22;5779;64.178;15.432;2022-11-04T07:25:33;7.10;99.90
11446;DHT22;5779;64.178;15.432;2022-11-04T07:28:20;7.20;99.90
11446;DHT22;5779;64.178;15.432;2022-11-04T07:31:09;7.20;99.90
11446;DHT22;5779;64.178;15.432;2022-11-04T07:33:56;7.20;99.90
11446;DHT22;5779;64.178;15.432;2022-11-04T07:36:44;7.20;99.90
11446;DHT22;5779;64.178;15.432;2022-11-04T07:39:32;7.20;99.90
11446;DHT22;5779;64.178;15.432;2022-11-04T07:42:18;7.20;99.90
11446;DHT22;5779;64.178;15.432;2022-11-04T07:45:06;7.10;99.90
11446;DHT22;5779;64.178;15.432;2022-11-04T07:47:53;7.10;99.90
11446;DHT22;5779;64.178;15.432;2022-11-04T07:50:40;7.10;99.90
11446;DHT22;5779;64.178;15.432;2022-11-04T07:53:29;7.10;99.90
11446;DHT22;5779;64.178;15.432;2022-11-04T07:56:16;7.00;99.90
11446;DHT22;5779;64.178;15.432;2022-11-04T07:59:05;7.10;99.90
11446;DHT22;5779;64.178;15.432;2022-11-04T08:01:52;7.10;99.90
11446;DHT22;5779;64.178;15.432;2022-11-04T08:04:39;7.20;99.90
11446;DHT22;5779;64.178;15.432;2022-11-04T08:07:25;7.20;99.90
11446;DHT22;5779;64.178;15.432;2022-11-04T08:10:14;7.20;99.90
11446;DHT22;5779;64.178;15.432;2022-11-04T08:13:01;7.30;99.90
11446;DHT22;5779;64.178;15.432;2022-11-04T08:15:47;7.30;99.90
11446;DHT22;5779;64.178;15.432;2022-11-04T08:18:35;7.40;99.90
11446;DHT22;5779;64.178;15.432;2022-11-04T08:21:22;7.50;99.90
11446;DHT22;5779;64.178;15.432;2022-11-04T08:24:09;7.40;99.90
11446;DHT22;5779;64.178;15.432;2022-11-04T08:26:57;7.50;99.90
11446;DHT22;5779;64.178;15.432;2022-11-04T08:29:44;7.40;99.90
11446;DHT22;5779;64.178;15.432;2022-11-04T08:32:31;7.50;99.90
11446;DHT22;5779;64.178;15.432;2022-11-04T08:35:18;7.50;99.90
11446;DHT22;5779;64.178;15.432;2022-11-04T08:38:05;7.60;99.90
11446;DHT22;5779;64.178;15.432;2022-11-04T08:40:52;7.60;99.90
11446;DHT22;5779;64.178;15.432;2022-11-04T08:43:43;7.60;99.90
11446;DHT22;5779;64.178;15.432;2022-11-04T08:46:33;7.70;99.90
11446;DHT22;5779;64.178;15.432;2022-11-04T08:49:20;7.60;99.90
11446;DHT22;5779;64.178;15.432;2022-11-04T08:52:07;7.70;99.90
11446;DHT22;5779;64.178;15.432;2022-11-04T08:54:54;7.70;99.90
11446;DHT22;5779;64.178;15.432;2022-11-04T08:57:41;7.70;99.90
11446;DHT22;5779;64.178;15.432;2022-11-04T09:00:30;7.70;99.90
11446;DHT22;5779;64.178;15.432;2022-11-04T09:03:18;7.80;99.90
11446;DHT22;5779;64.178;15.432;2022-11-04T09:06:06;7.70;99.90
11446;DHT22;5779;64.178;15.432;2022-11-04T09:08:53;7.80;99.90
11446;DHT22;5779;64.178;15.432;2022-11-04T09:11:43;7.90;99.90
11446;DHT22;5779;64.178;15.432;2022-11-04T09:14:30;7.80;99.90
11446;DHT22;5779;64.178;15.432;2022-11-04T09:17:19;7.80;99.90
11446;DHT22;5779;64.178;15.432;2022-11-04T09:20:06;7.80;99.90
11446;DHT22;5779;64.178;15.432;2022-11-04T09:22:54;7.70;99.90
11446;DHT22;5779;64.178;15.432;2022-11-04T09:25:42;7.70;99.90
11446;DHT22;5779;64.178;15.432;2022-11-04T09:28:29;7.70;99.90
11446;DHT22;5779;64.178;15.432;2022-11-04T09:31:17;7.60;99.90
11446;DHT22;5779;64.178;15.432;2022-11-04T09:34:07;7.70;99.90
11446;DHT22;5779;64.178;15.432;2022-11-04T09:36:54;7.70;99.90
11446;DHT22;5779;64.178;15.432;2022-11-04T09:39:41;7.70;99.90
11446;DHT22;5779;64.178;15.432;2022-11-04T09:42:36;7.70;99.90
11446;DHT22;5779;64.178;15.432;2022-11-04T09:45:28;7.60;99.90
11446;DHT22;5779;64.178;15.432;2022-11-04T09:48:25;7.60;99.90
11446;DHT22;5779;64.178;15.432;2022-11-04T09:51:16;7.60;99.90
11446;DHT22;5779;64.178;15.432;2022-11-04T09:54:10;7.60;99.90
11446;DHT22;5779;64.178;15.432;2022-11-04T09:56:59;7.60;99.90
11446;DHT22;5779;64.178;15.432;2022-11-04T09:59:47;7.60;99.90
11446;DHT22;5779;64.178;15.432;2022-11-04T10:02:45;7.60;99.90
11446;DHT22;5779;64.178;15.432;2022-11-04T10:05:46;7.60;99.90
11446;DHT22;5779;64.178;15.432;2022-11-04T10:09:09;7.60;99.90
11446;DHT22;5779;64.178;15.432;2022-11-04T10:12:09;7.50;99.90
11446;DHT22;5779;64.178;15.432;2022-11-04T10:15:23;7.30;99.90
11446;DHT22;5779;64.178;15.432;2022-11-04T10:18:45;7.30;99.90
11446;DHT22;5779;64.178;15.432;2022-11-04T10:21:43;7.40;99.90
11446;DHT22;5779;64.178;15.432;2022-11-04T10:24:40;7.30;99.90
11446;DHT22;5779;64.178;15.432;2022-11-04T10:27:30;7.20;99.90
11446;DHT22;5779;64.178;15.432;2022-11-04T10:30:20;7.20;99.90
11446;DHT22;5779;64.178;15.432;2022-11-04T10:33:21;7.10;99.90
11446;DHT22;5779;64.178;15.432;2022-11-04T10:36:10;7.20;99.90
11446;DHT22;5779;64.178;15.432;2022-11-04T10:39:02;7.10;99.90
11446;DHT22;5779;64.178;15.432;2022-11-04T10:41:52;7.10;99.90
11446;DHT22;5779;64.178;15.432;2022-11-04T10:44:39;6.90;99.90
11446;DHT22;5779;64.178;15.432;2022-11-04T10:47:33;6.80;99.90
11446;DHT22;5779;64.178;15.432;2022-11-04T10:50:27;6.80;99.90
11446;DHT22;5779;64.178;15.432;2022-11-04T10:53:18;6.80;99.90
11446;DHT22;5779;64.178;15.432;2022-11-04T10:56:09;6.70;99.90
11446;DHT22;5779;64.178;15.432;2022-11-04T10:59:04;6.80;99.90
11446;DHT22;5779;64.178;15.432;2022-11-04T11:01:59;6.90;99.90
11446;DHT22;5779;64.178;15.432;2022-11-04T11:04:47;6.80;99.90
11446;DHT22;5779;64.178;15.432;2022-11-04T11:07:36;6.90;99.90
11446;DHT22;5779;64.178;15.432;2022-11-04T11:10:25;6.90;99.90
11446;DHT22;5779;64.178;15.432;2022-11-04T11:13:24;6.90;99.90
11446;DHT22;5779;64.178;15.432;2022-11-04T11:16:17;6.90;99.90
11446;DHT22;5779;64.178;15.432;2022-11-04T11:19:16;6.80;99.90
11446;DHT22;5779;64.178;15.432;2022-11-04T11:22:03;6.80;99.90
11446;DHT22;5779;64.178;15.432;2022-11-04T11:24:50;6.80;99.90
11446;DHT22;5779;64.178;15.432;2022-11-04T11:27:37;6.80;99.90
11446;DHT22;5779;64.178;15.432;2022-11-04T11:30:27;6.80;99.90
11446;DHT22;5779;64.178;15.432;2022-11-04T11:33:19;6.80;99.90
11446;DHT22;5779;64.178;15.432;2022-11-04T11:36:13;6.80;99.90
11446;DHT22;5779;64.178;15.432;2022-11-04T11:39:04;6.80;99.90
11446;DHT22;5779;64.178;15.432;2022-11-04T11:41:55;6.90;99.90
11446;DHT22;5779;64.178;15.432;2022-11-04T11:44:47;7.00;99.90
11446;DHT22;5779;64.178;15.432;2022-11-04T11:47:35;6.90;99.90
11446;DHT22;5779;64.178;15.432;2022-11-04T11:50:29;6.90;99.90
11446;DHT22;5779;64.178;15.432;2022-11-04T11:53:19;6.80;99.90
11446;DHT22;5779;64.178;15.432;2022-11-04T11:56:17;6.80;99.90
11446;DHT22;5779;64.178;15.432;2022-11-04T11:59:15;6.70;99.90
11446;DHT22;5779;64.178;15.432;2022-11-04T12:02:19;6.60;99.90
11446;DHT22;5779;64.178;15.432;2022-11-04T12:05:09;6.60;99.90
11446;DHT22;5779;64.178;15.432;2022-11-04T12:08:11;6.60;99.90
11446;DHT22;5779;64.178;15.432;2022-11-04T12:11:06;6.50;99.90
11446;DHT22;5779;64.178;15.432;2022-11-04T12:13:56;6.50;99.90
11446;DHT22;5779;64.178;15.432;2022-11-04T12:16:51;6.70;99.90
11446;DHT22;5779;64.178;15.432;2022-11-04T12:19:58;6.60;99.90
11446;DHT22;5779;64.178;15.432;2022-11-04T12:22:55;6.60;99.90
11446;DHT22;5779;64.178;15.432;2022-11-04T12:25:53;6.60;99.90
11446;DHT22;5779;64.178;15.432;2022-11-04T12:29:02;6.60;99.90
11446;DHT22;5779;64.178;15.432;2022-11-04T12:31:58;6.70;99.90
11446;DHT22;5779;64.178;15.432;2022-11-04T12:34:59;6.70;99.90
11446;DHT22;5779;64.178;15.432;2022-11-04T12:37:53;6.70;99.90
11446;DHT22;5779;64.178;15.432;2022-11-04T12:40:52;6.70;99.90
11446;DHT22;5779;64.178;15.432;2022-11-04T12:43:50;6.80;99.90
11446;DHT22;5779;64.178;15.432;2022-11-04T12:46:43;6.80;99.90
11446;DHT22;5779;64.178;15.432;2022-11-04T12:49:50;6.70;99.90
11446;DHT22;5779;64.178;15.432;2022-11-04T12:56:04;6.80;99.90
11446;DHT22;5779;64.178;15.432;2022-11-04T12:59:28;6.70;99.90
11446;DHT22;5779;64.178;15.432;2022-11-04T13:02:20;6.70;99.90
11446;DHT22;5779;64.178;15.432;2022-11-04T13:05:22;6.70;99.90
11446;DHT22;5779;64.178;15.432;2022-11-04T13:08:19;6.80;99.90
11446;DHT22;5779;64.178;15.432;2022-11-04T13:11:11;6.80;99.90
11446;DHT22;5779;64.178;15.432;2022-11-04T13:14:13;6.90;99.90
11446;DHT22;5779;64.178;15.432;2022-11-04T13:17:05;6.90;99.90
11446;DHT22;5779;64.178;15.432;2022-11-04T13:20:00;6.90;99.90
11446;DHT22;5779;64.178;15.432;2022-11-04T13:22:50;6.90;99.90
11446;DHT22;5779;64.178;15.432;2022-11-04T13:25:40;6.90;99.90
11446;DHT22;5779;64.178;15.432;2022-11-04T13:28:31;7.00;99.90
11446;DHT22;5779;64.178;15.432;2022-11-04T13:31:21;7.00;99.90
11446;DHT22;5779;64.178;15.432;2022-11-04T13:34:21;6.90;99.90
11446;DHT22;5779;64.178;15.432;2022-11-04T13:37:18;6.90;99.90
11446;DHT22;5779;64.178;15.432;2022-11-04T13:40:14;6.90;99.90
11446;DHT22;5779;64.178;15.432;2022-11-04T13:43:17;7.00;99.90
11446;DHT22;5779;64.178;15.432;2022-11-04T13:46:27;7.00;99.90
11446;DHT22;5779;64.178;15.432;2022-11-04T13:49:19;7.00;99.90
11446;DHT22;5779;64.178;15.432;2022-11-04T13:52:08;7.00;99.90
11446;DHT22;5779;64.178;15.432;2022-11-04T13:54:57;7.10;99.90
11446;DHT22;5779;64.178;15.432;2022-11-04T13:57:50;7.10;99.90
11446;DHT22;5779;64.178;15.432;2022-11-04T14:00:37;7.00;99.90
11446;DHT22;5779;64.178;15.432;2022-11-04T14:03:53;7.00;99.90
11446;DHT22;5779;64.178;15.432;2022-11-04T14:06:52;7.00;99.90
11446;DHT22;5779;64.178;15.432;2022-11-04T14:09:57;7.00;99.90
11446;DHT22;5779;64.178;15.432;2022-11-04T14:12:45;7.00;99.90
11446;DHT22;5779;64.178;15.432;2022-11-04T14:15:57;7.00;99.90
11446;DHT22;5779;64.178;15.432;2022-11-04T14:18:52;7.00;99.90
11446;DHT22;5779;64.178;15.432;2022-11-04T14:22:04;7.10;99.90
11446;DHT22;5779;64.178;15.432;2022-11-04T14:24:56;7.10;99.90
11446;DHT22;5779;64.178;15.432;2022-11-04T14:27:46;7.10;99.90
11446;DHT22;5779;64.178;15.432;2022-11-04T14:30:44;7.20;99.90
11446;DHT22;5779;64.178;15.432;2022-11-04T14:33:35;7.20;99.90
11446;DHT22;5779;64.178;15.432;2022-11-04T14:36:34;7.10;99.90
11446;DHT22;5779;64.178;15.432;2022-11-04T14:39:23;7.10;99.90
11446;DHT22;5779;64.178;15.432;2022-11-04T14:42:44;7.10;99.90
11446;DHT22;5779;64.178;15.432;2022-11-04T14:45:38;7.10;99.90
11446;DHT22;5779;64.178;15.432;2022-11-04T14:48:27;7.20;99.90
11446;DHT22;5779;64.178;15.432;2022-11-04T14:51:21;7.20;99.90
11446;DHT22;5779;64.178;15.432;2022-11-04T14:54:18;7.20;99.90
11446;DHT22;5779;64.178;15.432;2022-11-04T14:57:13;7.10;99.90
11446;DHT22;5779;64.178;15.432;2022-11-04T15:03:24;7.00;99.90
11446;DHT22;5779;64.178;15.432;2022-11-04T15:06:11;6.90;99.90
11446;DHT22;5779;64.178;15.432;2022-11-04T15:08:58;6.90;99.90
11446;DHT22;5779;64.178;15.432;2022-11-04T15:11:47;6.60;99.90
11446;DHT22;5779;64.178;15.432;2022-11-04T15:14:51;6.50;99.90
11446;DHT22;5779;64.178;15.432;2022-11-04T15:17:38;6.40;99.90
11446;DHT22;5779;64.178;15.432;2022-11-04T15:20:27;6.40;99.90
11446;DHT22;5779;64.178;15.432;2022-11-04T15:23:19;6.40;99.90
11446;DHT22;5779;64.178;15.432;2022-11-04T15:26:19;6.40;99.90
11446;DHT22;5779;64.178;15.432;2022-11-04T15:29:10;6.40;99.90
11446;DHT22;5779;64.178;15.432;2022-11-04T15:31:59;6.40;99.90
11446;DHT22;5779;64.178;15.432;2022-11-04T15:34:46;6.50;99.90
11446;DHT22;5779;64.178;15.432;2022-11-04T15:37:34;6.30;99.90
11446;DHT22;5779;64.178;15.432;2022-11-04T15:40:22;6.40;99.90
11446;DHT22;5779;64.178;15.432;2022-11-04T15:43:10;6.40;99.90
11446;DHT22;5779;64.178;15.432;2022-11-04T15:46:01;6.40;99.90
11446;DHT22;5779;64.178;15.432;2022-11-04T15:49:00;6.20;99.90
11446;DHT22;5779;64.178;15.432;2022-11-04T15:51:47;6.20;99.90
11446;DHT22;5779;64.178;15.432;2022-11-04T15:54:35;6.20;99.90
11446;DHT22;5779;64.178;15.432;2022-11-04T15:57:24;6.20;99.90
11446;DHT22;5779;64.178;15.432;2022-11-04T16:00:21;6.20;99.90
11446;DHT22;5779;64.178;15.432;2022-11-04T16:03:17;6.10;99.90
11446;DHT22;5779;64.178;15.432;2022-11-04T16:06:06;6.20;99.90
11446;DHT22;5779;64.178;15.432;2022-11-04T16:09:02;6.20;99.90
11446;DHT22;5779;64.178;15.432;2022-11-04T16:12:14;6.30;99.90
11446;DHT22;5779;64.178;15.432;2022-11-04T16:15:01;6.40;99.90
11446;DHT22;5779;64.178;15.432;2022-11-04T16:17:47;6.50;99.90
11446;DHT22;5779;64.178;15.432;2022-11-04T16:20:36;6.50;99.90
11446;DHT22;5779;64.178;15.432;2022-11-04T16:23:24;6.50;99.90
11446;DHT22;5779;64.178;15.432;2022-11-04T16:26:12;6.50;99.90
11446;DHT22;5779;64.178;15.432;2022-11-04T16:28:59;6.40;99.90
11446;DHT22;5779;64.178;15.432;2022-11-04T16:32:07;6.40;99.90
11446;DHT22;5779;64.178;15.432;2022-11-04T16:34:58;6.30;99.90
11446;DHT22;5779;64.178;15.432;2022-11-04T16:37:48;6.50;99.90
11446;DHT22;5779;64.178;15.432;2022-11-04T16:40:34;6.40;99.90
11446;DHT22;5779;64.178;15.432;2022-11-04T16:43:21;6.40;99.90
11446;DHT22;5779;64.178;15.432;2022-11-04T16:46:10;6.40;99.90
11446;DHT22;5779;64.178;15.432;2022-11-04T16:48:57;6.50;99.90
11446;DHT22;5779;64.178;15.432;2022-11-04T16:51:45;6.50;99.90
11446;DHT22;5779;64.178;15.432;2022-11-04T16:54:35;6.60;99.90
11446;DHT22;5779;64.178;15.432;2022-11-04T16:57:23;6.70;99.90
11446;DHT22;5779;64.178;15.432;2022-11-04T17:00:17;6.50;99.90
11446;DHT22;5779;64.178;15.432;2022-11-04T17:03:15;6.50;99.90
11446;DHT22;5779;64.178;15.432;2022-11-04T17:06:05;6.40;99.90
11446;DHT22;5779;64.178;15.432;2022-11-04T17:08:52;6.50;99.90
11446;DHT22;5779;64.178;15.432;2022-11-04T17:11:41;6.50;99.90
11446;DHT22;5779;64.178;15.432;2022-11-04T17:14:28;6.60;99.90
11446;DHT22;5779;64.178;15.432;2022-11-04T17:17:15;6.50;99.90
11446;DHT22;5779;64.178;15.432;2022-11-04T17:20:02;6.50;99.90
11446;DHT22;5779;64.178;15.432;2022-11-04T17:22:50;6.50;99.90
11446;DHT22;5779;64.178;15.432;2022-11-04T17:25:38;6.50;99.90
11446;DHT22;5779;64.178;15.432;2022-11-04T17:28:26;6.60;99.90
11446;DHT22;5779;64.178;15.432;2022-11-04T17:31:15;6.50;99.90
11446;DHT22;5779;64.178;15.432;2022-11-04T17:34:04;6.40;99.90
11446;DHT22;5779;64.178;15.432;2022-11-04T17:36:51;6.30;99.90
11446;DHT22;5779;64.178;15.432;2022-11-04T17:39:37;6.40;99.90
11446;DHT22;5779;64.178;15.432;2022-11-04T17:42:24;6.50;99.90
11446;DHT22;5779;64.178;15.432;2022-11-04T17:45:30;6.50;99.90
11446;DHT22;5779;64.178;15.432;2022-11-04T17:48:21;6.50;99.90
11446;DHT22;5779;64.178;15.432;2022-11-04T17:51:08;6.50;99.90
11446;DHT22;5779;64.178;15.432;2022-11-04T17:53:55;6.50;99.90
11446;DHT22;5779;64.178;15.432;2022-11-04T17:56:42;6.40;99.90
11446;DHT22;5779;64.178;15.432;2022-11-04T17:59:29;6.30;99.90
11446;DHT22;5779;64.178;15.432;2022-11-04T18:02:17;6.20;99.90
11446;DHT22;5779;64.178;15.432;2022-11-04T18:05:05;6.30;99.90
11446;DHT22;5779;64.178;15.432;2022-11-04T18:07:52;6.40;99.90
11446;DHT22;5779;64.178;15.432;2022-11-04T18:10:40;6.30;99.90
11446;DHT22;5779;64.178;15.432;2022-11-04T18:13:27;6.20;99.90
11446;DHT22;5779;64.178;15.432;2022-11-04T18:16:14;6.10;99.90
11446;DHT22;5779;64.178;15.432;2022-11-04T18:19:03;6.10;99.90
11446;DHT22;5779;64.178;15.432;2022-11-04T18:21:49;6.10;99.90
11446;DHT22;5779;64.178;15.432;2022-11-04T18:24:37;6.20;99.90
11446;DHT22;5779;64.178;15.432;2022-11-04T18:27:24;6.20;99.90
11446;DHT22;5779;64.178;15.432;2022-11-04T18:30:12;6.10;99.90